Estes Park, CO

3:27 AM MDT on May 30, 2015 (GMT -0600)
Fort Collins-Loveland Municipal | | Change Station
CLOSE
Current Station
Airport
Location: Fort Collins,
Elevation: 5016 ft
Nearby Weather Stations

Elev 5016 ft 40.45 °N, 105.01 °W | Updated 12 minutes ago

Partly Cloudy
Partly Cloudy
50 °F
Feels Like 50 °F
N
7
Wind Variable Wind from SSE

Today
High -- | Low -- °F
--% Chance of Precip.
Yesterday
High -- | Low -- °F
Precip. -- in
5:35 AM 8:24 PM
Waxing Gibbous, 89% visible
Pressure 30.32 in
Visibility 10.0 miles
Clouds Overcast 2600 ft
Dew Point 45 °F
Humidity 82%
Rainfall 0.00 in
Snow Depth Not available.
UV 0 out of 12
Pollen 6.10 out of 12
Air Quality Not available.
Flu Activity Sporadic
METAR KFNL 300915Z AUTO 16006KT 10SM OVC026 10/07 A3032 RMK AO1

More Conditions Fewer Conditions

Pressure 30.32 in
Visibility 10.0 miles
Clouds Overcast 2600 ft
Dew Point 45 °F
Humidity 82%
Rainfall 0.00 in
Snow Depth Not available.
UV 0 out of 12
Pollen 6.10 out of 12
Air Quality Not available.
Flu Activity Sporadic
METAR KFNL 300915Z AUTO 16006KT 10SM OVC026 10/07 A3032 RMK AO1

More Conditions Fewer Conditions

10-Day Weather Forecast

Almanac

Astronomy

May. 30, 2015 Rise Set
Actual Time
Civil Twilight
Nautical Twilight
Astronomical Twilight
Moon
Length of Visible Light
Length of Day
Tomorrow will be .
, % of the Moon is Illuminated

Today's Extremes

State Highs State Lows

Community

WunderPhotos

Upload Photos

1,825,475 photos uploaded!

WunderBlogs® & News

Nearby

Air Quality

  Air Quality AQ Index Pollutant
Not available.

Snow Depth

Station Depth Elevation

Earthquake Activity

City Distance Mag. Time & Date
Minimum magnitude displayed is 2.5.

Coastal Water Temperatures

Place Temperature

Stations

Nearby Weather Stations

Station Location Temp. Windchill Dew Point Humidity Wind Precip. Elev Updated Type